Time;durP1;ratioP1;P1;durP2;ratioP2;P2;SDS_P1;SDS_P2;PMS_P1;PMS_P2;Temp;Humidity;BMP_temperature;BMP_pressure;BME280_temperature;BME280_humidity;BME280_pressure;Samples;Min_cycle;Max_cycle;Signal;HPM_P1;HPM_P2
2022/11/09 00:01:30;;;;;;;3.80;2.80;;;12.60;92.80;;;12.78;66.09;100523.28;5096596;28;20396;-77
2022/11/09 00:04:02;;;;;;;2.83;2.17;;;12.60;92.60;;;12.78;66.09;100523.28;5094813;28;20392;-77
2022/11/09 00:06:31;;;;;;;3.73;2.33;;;12.60;92.70;;;12.76;66.42;100526.22;5094667;28;20465;-76
2022/11/09 00:09:02;;;;;;;3.20;2.30;;;12.60;93.00;;;12.63;66.67;100527.16;5094945;28;20434;-77
2022/11/09 00:11:37;;;;;;;2.27;1.80;;;12.60;93.20;;;12.63;66.84;100521.72;5094333;28;20427;-77
2022/11/09 00:14:06;;;;;;;4.43;2.77;;;12.60;93.20;;;12.49;67.55;100524.81;5095398;28;20392;-77
2022/11/09 00:16:35;;;;;;;3.67;2.10;;;12.50;94.00;;;12.54;67.59;100527.66;5096570;28;20415;-78
2022/11/09 00:19:04;;;;;;;3.20;2.50;;;12.50;94.40;;;12.59;67.38;100525.94;5096071;28;20409;-77
2022/11/09 00:21:32;;;;;;;7.00;3.03;;;12.50;94.30;;;12.61;67.28;100526.56;5098012;28;20422;-82
2022/11/09 00:24:01;;;;;;;4.43;2.07;;;12.50;94.30;;;12.54;67.72;100523.06;5104708;28;20486;-76
2022/11/09 00:26:30;;;;;;;3.63;2.30;;;12.50;95.20;;;12.67;66.89;100513.16;5117024;22;20541;-79
2022/11/09 00:29:01;;;;;;;3.80;3.30;;;12.50;94.30;;;12.76;66.83;100519.94;5052426;28;20424;-79
2022/11/09 00:31:29;;;;;;;8.53;2.87;;;12.60;94.50;;;12.76;66.97;100514.50;5045676;28;20456;-79
2022/11/09 00:33:58;;;;;;;2.80;2.20;;;12.60;94.30;;;12.72;67.12;100524.16;5056260;28;20427;-78
2022/11/09 00:36:29;;;;;;;5.50;4.03;;;12.60;94.20;;;12.63;67.41;100519.00;5040064;28;20427;-81
2022/11/09 00:39:00;;;;;;;6.23;3.00;;;12.60;94.50;;;12.71;67.06;100525.22;5040797;28;20432;-78
2022/11/09 00:41:29;;;;;;;4.23;2.90;;;12.50;94.50;;;12.68;67.02;100521.09;5055806;28;20415;-79
2022/11/09 00:43:59;;;;;;;3.87;2.50;;;12.60;94.30;;;12.73;66.99;100517.69;5039416;28;20457;-79
2022/11/09 00:46:28;;;;;;;2.80;2.10;;;12.60;94.40;;;12.74;66.66;100512.00;5038707;28;20423;-79
2022/11/09 00:48:57;;;;;;;4.43;2.20;;;12.60;94.30;;;12.65;67.05;100507.94;5036694;28;20425;-81
2022/11/09 00:51:25;;;;;;;4.40;2.70;;;12.50;94.30;;;12.61;67.37;100507.56;5037184;28;20442;-80
2022/11/09 00:53:57;;;;;;;3.20;2.57;;;12.50;95.00;;;12.54;67.70;100501.38;5053478;28;20443;-79
2022/11/09 00:56:25;;;;;;;3.60;2.03;;;12.50;94.90;;;12.57;67.62;100500.94;5036570;28;20460;-78
2022/11/09 00:58:55;;;;;;;3.40;2.17;;;12.50;95.10;;;12.44;68.22;100502.97;5053541;28;20800;-78
2022/11/09 01:01:25;;;;;;;5.00;2.57;;;12.40;95.50;;;12.64;67.51;100511.69;5038738;28;20881;-79
2022/11/09 01:03:54;;;;;;;3.33;1.97;;;12.50;95.70;;;12.60;67.67;100510.50;5036919;28;20823;-80
2022/11/09 01:06:26;;;;;;;3.73;2.73;;;12.50;95.60;;;12.46;68.09;100508.97;5035593;28;20427;-80
2022/11/09 01:08:55;;;;;;;3.20;2.30;;;12.40;95.70;;;12.34;68.56;100499.91;5036883;28;20432;-80
2022/11/09 01:11:24;;;;;;;2.40;2.10;;;12.30;96.00;;;12.68;67.42;100502.09;5038028;28;20869;-80
2022/11/09 01:13:54;;;;;;;2.90;2.60;;;12.40;95.70;;;12.62;67.10;100505.69;5036431;28;20431;-79
2022/11/09 01:16:25;;;;;;;3.27;2.60;;;12.50;95.20;;;12.50;67.96;100497.44;5044712;28;20559;-77
2022/11/09 01:18:55;;;;;;;3.20;2.40;;;12.40;95.40;;;12.55;67.50;100497.59;5024393;28;20426;-79
2022/11/09 01:21:28;;;;;;;4.10;2.97;;;12.40;95.30;;;12.48;67.79;100496.84;5039615;28;20492;-79
2022/11/09 01:24:00;;;;;;;3.43;1.80;;;12.40;95.80;;;12.39;67.97;100490.03;5038670;28;20458;-78
2022/11/09 01:26:29;;;;;;;5.13;2.63;;;12.30;95.60;;;12.31;68.45;100484.91;5037582;28;20459;-79
2022/11/09 01:28:58;;;;;;;3.33;2.47;;;12.30;96.00;;;12.20;68.96;100483.75;5035809;28;20436;-78
2022/11/09 01:31:28;;;;;;;5.40;2.87;;;12.20;96.50;;;12.18;68.76;100485.03;5052789;28;20449;-79
2022/11/09 01:33:57;;;;;;;4.33;3.10;;;12.20;96.60;;;12.27;68.46;100477.44;5021840;28;20818;-81
2022/11/09 01:36:26;;;;;;;4.83;2.20;;;12.20;96.50;;;12.26;68.44;100482.03;5037875;28;20518;-79
2022/11/09 01:38:55;;;;;;;4.33;3.03;;;12.20;96.80;;;12.19;68.72;100475.84;5037383;28;20432;-79
2022/11/09 01:41:28;;;;;;;5.43;2.30;;;12.10;96.70;;;12.10;69.20;100477.19;5033113;28;20433;-80
2022/11/09 01:44:09;;;;;;;4.70;2.10;;;12.10;96.90;;;12.10;69.19;100471.75;5051348;28;20436;-79
2022/11/09 01:46:53;;;;;;;2.83;1.90;;;12.10;97.10;;;12.21;68.88;100476.44;5072044;28;20450;-78
2022/11/09 01:49:40;;;;;;;7.17;2.90;;;12.10;97.40;;;12.37;68.16;100481.31;5053885;28;20506;-80
2022/11/09 01:52:25;;;;;;;3.80;2.50;;;12.20;96.90;;;12.31;68.39;100479.47;5023835;28;20559;-77
2022/11/09 01:55:01;;;;;;;2.77;2.10;;;12.20;96.80;;;12.19;68.87;100476.69;5024873;28;20818;-80
2022/11/09 01:57:38;;;;;;;3.13;2.10;;;12.10;97.10;;;12.17;68.83;100480.66;5042340;28;20471;-80
2022/11/09 02:00:12;;;;;;;6.13;3.27;;;12.10;96.90;;;11.95;69.64;100480.22;5049319;28;20477;-78
2022/11/09 02:02:50;;;;;;;3.60;2.43;;;12.00;97.60;;;12.06;69.45;100481.38;5046698;28;20399;-81
2022/11/09 02:05:24;;;;;;;3.03;2.73;;;12.00;98.00;;;11.98;69.52;100473.53;5036840;28;20471;-78
2022/11/09 02:07:56;;;;;;;3.13;2.13;;;11.90;98.10;;;11.84;70.09;100461.97;5035694;28;20469;-78
2022/11/09 02:10:33;;;;;;;2.37;2.00;;;11.80;98.50;;;11.68;70.38;100466.00;5016788;28;20928;-77
2022/11/09 02:13:03;;;;;;;2.30;1.77;;;11.70;98.80;;;11.49;71.62;100458.84;5024965;28;20434;-80
2022/11/09 02:15:37;;;;;;;7.70;2.67;;;11.60;99.90;;;11.50;71.83;100451.53;5034829;28;20423;-80
2022/11/09 02:18:14;;;;;;;4.00;2.70;;;11.50;99.90;;;11.65;70.72;100449.34;5038474;28;20787;-80
2022/11/09 02:20:51;;;;;;;2.60;2.20;;;11.60;99.90;;;11.72;70.38;100448.28;5041443;28;20584;-80
2022/11/09 02:23:24;;;;;;;6.10;2.47;;;11.60;99.90;;;11.51;71.34;100442.38;5043057;28;20407;-78
2022/11/09 02:25:59;;;;;;;4.13;2.57;;;11.50;99.90;;;11.34;71.98;100444.75;5073930;28;20419;-78
2022/11/09 02:28:30;;;;;;;7.83;2.70;;;11.40;99.90;;;11.22;72.53;100441.09;5059181;28;20436;-78
2022/11/09 02:31:00;;;;;;;4.73;2.77;;;11.30;99.90;;;11.17;73.01;100449.03;5059903;28;20424;-78
2022/11/09 02:33:28;;;;;;;5.07;3.03;;;11.30;99.90;;;11.20;72.93;100457.56;5074078;28;20434;-79
2022/11/09 02:35:58;;;;;;;3.50;2.50;;;11.30;99.90;;;11.24;73.12;100455.25;5059917;28;20418;-77
2022/11/09 02:38:27;;;;;;;2.53;2.23;;;11.20;99.90;;;11.26;73.02;100459.41;5059047;28;20411;-79
2022/11/09 02:40:55;;;;;;;3.40;2.50;;;11.20;99.90;;;11.39;72.40;100452.22;5050225;28;20478;-80
2022/11/09 02:43:24;;;;;;;3.23;2.73;;;11.30;99.90;;;11.24;72.73;100438.97;5057730;28;20430;-80
2022/11/09 02:45:53;;;;;;;3.50;2.30;;;11.30;99.90;;;11.28;72.59;100440.22;5042755;28;20490;-79
2022/11/09 02:48:35;;;;;;;4.17;2.50;;;11.30;99.90;;;11.34;72.78;100437.47;4994231;28;20965;-78
2022/11/09 02:51:05;;;;;;;3.97;3.30;;;11.30;99.90;;;11.39;72.34;100436.81;5004096;28;20421;-78
2022/11/09 02:53:34;;;;;;;2.57;2.13;;;11.30;99.90;;;11.56;71.75;100437.97;5001896;28;20600;-80
2022/11/09 02:56:03;;;;;;;2.23;2.03;;;11.40;99.90;;;11.51;71.91;100445.09;5004782;28;20435;-80
2022/11/09 02:58:31;;;;;;;1.90;1.67;;;11.40;99.90;;;11.39;71.98;100442.22;4991857;28;20540;-79
2022/11/09 03:01:01;;;;;;;3.87;2.10;;;11.40;99.90;;;11.52;71.93;100442.13;5002096;28;20473;-80
2022/11/09 03:03:29;;;;;;;2.63;2.20;;;11.40;99.90;;;11.62;71.13;100447.91;5008326;28;20489;-78
2022/11/09 03:05:58;;;;;;;4.63;3.27;;;11.50;99.90;;;11.60;71.16;100444.59;4996853;28;21127;-80
2022/11/09 03:08:28;;;;;;;9.83;2.77;;;11.50;99.90;;;11.63;70.91;100443.31;5000788;28;20409;-78
2022/11/09 03:10:59;;;;;;;2.70;2.23;;;11.60;99.90;;;11.64;70.76;100443.09;4965554;28;20398;-79
2022/11/09 03:13:28;;;;;;;5.37;3.10;;;11.60;99.90;;;11.70;70.53;100444.94;4962837;28;20452;-80
2022/11/09 03:15:56;;;;;;;8.50;2.90;;;11.60;99.90;;;11.74;70.55;100435.34;4978522;28;20979;-79
2022/11/09 03:18:26;;;;;;;4.20;3.47;;;11.60;99.90;;;11.76;70.51;100443.25;4998925;28;20428;-80
2022/11/09 03:20:54;;;;;;;2.20;1.90;;;11.70;99.90;;;11.68;70.68;100425.34;4994759;28;20445;-78
2022/11/09 03:23:23;;;;;;;3.00;1.87;;;11.60;99.90;;;11.69;70.64;100415.34;4983872;28;20426;-78
2022/11/09 03:25:53;;;;;;;3.70;2.77;;;11.60;99.90;;;11.85;70.12;100408.56;5015916;28;20402;-79
2022/11/09 03:28:22;;;;;;;2.83;2.13;;;11.70;99.90;;;11.73;70.58;100409.28;5038863;28;20490;-80
2022/11/09 03:30:53;;;;;;;3.70;2.57;;;11.70;99.90;;;11.82;70.55;100415.25;5055595;28;20448;-77
2022/11/09 03:33:21;;;;;;;4.37;2.70;;;11.70;99.90;;;11.83;70.25;100410.66;5061166;28;20458;-77
2022/11/09 03:35:51;;;;;;;2.90;2.40;;;11.70;99.90;;;12.09;69.21;100422.09;5045016;28;20440;-78
2022/11/09 03:38:20;;;;;;;6.10;2.80;;;11.90;99.90;;;12.08;69.26;100422.31;5056162;28;20530;-79
2022/11/09 03:40:50;;;;;;;4.70;2.77;;;11.90;99.60;;;12.28;68.49;100431.09;5030381;28;20444;-79
2022/11/09 03:43:20;;;;;;;3.30;2.50;;;12.00;99.00;;;12.35;67.98;100442.69;5054098;28;20436;-79
2022/11/09 03:45:52;;;;;;;7.87;2.60;;;12.10;98.10;;;12.13;68.90;100457.75;5040049;28;20409;-80
2022/11/09 03:48:21;;;;;;;3.30;1.90;;;12.10;98.30;;;12.10;69.05;100453.56;5038677;28;20442;-79
2022/11/09 03:50:49;;;;;;;3.60;2.87;;;12.00;98.40;;;12.31;68.43;100451.50;5037901;28;20436;-78
2022/11/09 03:53:18;;;;;;;3.77;2.27;;;12.10;98.50;;;12.34;68.07;100456.50;5048119;28;20898;-78
2022/11/09 03:55:47;;;;;;;4.87;2.47;;;12.20;97.70;;;12.44;67.92;100449.47;5052789;28;20807;-79
2022/11/09 03:58:16;;;;;;;5.97;2.50;;;12.20;97.70;;;12.61;66.99;100453.28;5053433;28;20425;-79
2022/11/09 04:00:45;;;;;;;3.67;2.50;;;12.30;96.60;;;12.60;67.29;100462.47;5042885;28;20406;-80
2022/11/09 04:03:14;;;;;;;6.90;2.33;;;12.40;96.50;;;12.43;68.14;100458.69;5057658;28;20402;-81
2022/11/09 04:05:43;;;;;;;4.00;3.00;;;12.30;97.20;;;12.55;68.11;100459.59;5021732;28;20457;-81
2022/11/09 04:08:11;;;;;;;7.37;2.60;;;12.40;97.50;;;12.44;68.52;100457.63;5042433;28;20410;-82
2022/11/09 04:10:40;;;;;;;13.03;2.70;;;12.30;97.60;;;12.45;68.56;100464.72;5041080;28;20944;-80
2022/11/09 04:13:08;;;;;;;5.67;2.90;;;12.30;98.00;;;12.47;68.47;100457.19;5041921;28;20431;-81
2022/11/09 04:15:37;;;;;;;3.60;2.53;;;12.30;98.10;;;12.32;69.37;100459.44;5040705;28;20775;-81
2022/11/09 04:18:09;;;;;;;3.20;2.50;;;12.20;98.80;;;12.31;69.76;100457.78;5041854;28;20425;-82
2022/11/09 04:20:37;;;;;;;2.10;1.80;;;12.20;99.00;;;12.29;69.73;100459.91;5045365;28;20944;-79
2022/11/09 04:23:09;;;;;;;2.90;2.37;;;12.20;99.30;;;12.34;69.95;100457.34;5034081;28;20476;-78
2022/11/09 04:25:41;;;;;;;4.00;2.57;;;12.20;99.80;;;12.38;69.69;100460.44;5037406;28;21147;-80
2022/11/09 04:28:19;;;;;;;3.73;2.47;;;12.20;99.50;;;12.30;69.97;100450.69;5053414;28;20410;-79
2022/11/09 04:30:47;;;;;;;3.33;2.30;;;12.20;99.90;;;12.17;70.48;100453.53;5039818;28;20478;-79
2022/11/09 04:33:17;;;;;;;2.93;2.17;;;12.10;99.90;;;12.36;70.15;100455.22;5054936;28;20439;-79
2022/11/09 04:35:47;;;;;;;4.73;2.80;;;12.20;99.90;;;12.29;70.13;100442.78;5054238;28;20436;-79
2022/11/09 04:38:15;;;;;;;3.10;2.20;;;12.20;99.90;;;12.31;70.48;100446.09;5039447;28;20432;-80
2022/11/09 04:40:44;;;;;;;3.60;3.10;;;12.20;99.90;;;12.43;70.13;100445.13;5039968;28;20476;-80
2022/11/09 04:43:14;;;;;;;3.67;2.57;;;12.30;99.90;;;12.35;71.03;100448.13;5040335;28;20412;-80
2022/11/09 04:45:43;;;;;;;3.67;2.30;;;12.20;99.90;;;12.42;70.96;100459.75;5039142;28;20411;-78
2022/11/09 04:48:12;;;;;;;4.23;2.60;;;12.20;99.90;;;12.37;70.74;100453.34;5039392;28;20449;-80
2022/11/09 04:50:42;;;;;;;5.03;2.03;;;12.30;99.90;;;12.40;70.96;100455.59;5038975;28;20455;-80
2022/11/09 04:53:14;;;;;;;3.60;2.70;;;12.30;99.90;;;12.32;71.42;100445.03;5039848;28;20471;-82
2022/11/09 04:55:43;;;;;;;2.90;2.47;;;12.20;99.90;;;12.26;71.67;100444.03;5038884;28;20947;-79
2022/11/09 04:58:12;;;;;;;3.07;2.30;;;12.20;99.90;;;12.26;71.73;100454.91;5040892;28;20432;-79
2022/11/09 05:00:41;;;;;;;2.63;2.43;;;12.20;99.90;;;12.33;71.51;100460.28;5040035;28;20450;-81
2022/11/09 05:03:10;;;;;;;2.27;1.80;;;12.20;99.90;;;12.44;71.18;100457.63;5034359;28;20420;-81
2022/11/09 05:05:40;;;;;;;3.77;2.70;;;12.30;99.90;;;12.28;71.84;100460.94;5037961;28;20502;-80
2022/11/09 05:08:15;;;;;;;9.93;2.70;;;12.20;99.90;;;12.42;71.91;100459.75;5035903;28;20398;-80
2022/11/09 05:10:44;;;;;;;10.23;2.70;;;12.30;99.90;;;12.39;71.71;100460.19;5041416;28;20436;-80
2022/11/09 05:13:14;;;;;;;3.70;2.30;;;12.20;99.90;;;12.53;71.13;100469.88;5055499;28;20486;-79
2022/11/09 05:15:43;;;;;;;3.03;2.40;;;12.30;99.90;;;12.47;71.41;100470.75;5041135;28;20436;-80
2022/11/09 05:18:11;;;;;;;2.90;2.33;;;12.30;99.90;;;12.39;71.59;100471.03;5042995;28;20410;-80
2022/11/09 05:20:41;;;;;;;2.73;2.00;;;12.30;99.90;;;12.48;71.34;100460.75;5048201;28;20423;-79
2022/11/09 05:25:56;;;;;;;4.50;2.70;;;12.30;99.90;;;12.55;72.18;100466.91;5049137;28;20447;-81
2022/11/09 05:28:25;;;;;;;2.80;1.97;;;12.30;99.90;;;12.52;72.41;100465.50;5040256;28;20489;-80
2022/11/09 05:30:54;;;;;;;4.57;3.37;;;12.30;99.90;;;12.48;72.96;100464.28;5038132;28;20414;-81
2022/11/09 05:33:22;;;;;;;4.03;3.37;;;12.30;99.90;;;12.36;73.24;100457.94;5039230;28;20434;-80
2022/11/09 05:35:54;;;;;;;3.80;2.50;;;12.30;99.90;;;12.33;73.73;100469.25;5037359;28;20523;-80
2022/11/09 05:38:24;;;;;;;5.27;2.90;;;12.20;99.90;;;12.40;73.91;100467.28;5047759;28;20390;-80
2022/11/09 05:40:54;;;;;;;3.47;2.47;;;12.20;99.90;;;12.47;73.78;100468.06;5044537;28;20432;-80
2022/11/09 05:43:23;;;;;;;5.40;2.47;;;12.30;99.90;;;12.47;74.14;100478.91;5038742;28;20482;-81
2022/11/09 05:45:51;;;;;;;2.93;2.63;;;12.30;99.90;;;12.55;73.80;100481.31;5027191;28;20436;-81
2022/11/09 05:48:20;;;;;;;3.63;2.50;;;12.40;99.90;;;12.48;74.40;100469.72;5039184;28;20435;-81
2022/11/09 05:50:49;;;;;;;3.07;2.53;;;12.30;99.90;;;12.47;74.51;100465.34;5037784;28;20509;-81
2022/11/09 05:53:28;;;;;;;3.60;3.07;;;12.30;99.90;;;12.37;75.15;100467.72;5042223;28;20438;-80
2022/11/09 05:56:01;;;;;;;3.20;2.90;;;12.30;99.90;;;12.30;75.49;100477.81;5041336;28;20446;-81
2022/11/09 05:58:29;;;;;;;3.03;2.37;;;12.20;99.90;;;12.31;75.90;100474.03;5055784;28;20415;-79
2022/11/09 06:00:58;;;;;;;4.97;3.33;;;12.20;99.90;;;12.34;75.60;100479.03;5037179;28;20436;-81
2022/11/09 06:03:27;;;;;;;6.70;3.40;;;12.20;99.90;;;12.44;75.34;100479.34;5043710;28;20466;-80
2022/11/09 06:06:00;;;;;;;5.37;3.20;;;12.30;99.90;;;12.33;75.78;100480.09;5042360;28;20494;-81
2022/11/09 06:08:37;;;;;;;7.77;3.03;;;12.20;99.90;;;12.31;76.18;100479.47;5043078;28;20417;-79
2022/11/09 06:11:09;;;;;;;3.37;2.73;;;12.20;99.90;;;12.29;76.50;100473.47;5043519;28;20432;-80
2022/11/09 06:13:45;;;;;;;5.60;2.50;;;12.20;99.90;;;12.41;76.04;100471.66;5045373;28;20471;-78
2022/11/09 06:16:21;;;;;;;4.27;3.40;;;12.20;99.90;;;12.60;75.46;100484.19;5037783;28;20691;-79
2022/11/09 06:18:50;;;;;;;14.50;3.20;;;12.40;99.90;;;12.42;76.38;100481.47;5045779;28;20447;-80
2022/11/09 06:21:19;;;;;;;6.23;3.13;;;12.30;99.90;;;12.48;75.65;100483.28;5059354;28;20522;-80
2022/11/09 06:23:49;;;;;;;6.43;3.27;;;12.40;99.90;;;12.43;76.28;100491.28;5048028;28;20516;-80
2022/11/09 06:26:18;;;;;;;5.70;2.70;;;12.30;99.90;;;12.60;75.52;100499.63;5046457;28;20450;-79
2022/11/09 06:31:39;;;;;;;5.67;3.50;;;12.40;99.90;;;12.56;75.38;100499.28;4981902;28;20489;-84
2022/11/09 06:34:12;;;;;;;5.10;3.13;;;12.40;99.90;;;12.62;75.00;100498.38;4969150;28;20467;-81
2022/11/09 06:39:47;;;;;;;6.53;3.73;;;12.40;99.90;;;12.51;75.89;100495.56;4964650;28;20442;-83
2022/11/09 06:42:38;;;;;;;7.23;3.10;;;12.40;99.90;;;12.61;76.25;100506.72;4953789;28;20513;-82
2022/11/09 06:45:16;;;;;;;7.83;3.40;;;12.50;99.90;;;12.48;77.02;100506.88;4979293;28;20447;-83
2022/11/09 06:48:17;;;;;;;5.40;3.43;;;12.40;99.90;;;12.61;77.49;100506.72;4961459;29;20423;-83
2022/11/09 06:51:36;;;;;;;4.60;3.77;;;12.40;99.90;;;12.55;77.62;100508.47;4977239;28;20466;-85
2022/11/09 06:54:31;;;;;;;11.73;3.00;;;12.50;99.90;;;12.47;78.65;100511.47;4965506;29;21052;-82
2022/11/09 06:57:57;;;;;;;3.67;2.80;;;12.40;99.90;;;12.33;80.18;100515.38;4968122;28;20497;-81
2022/11/09 07:00:54;;;;;;;8.50;3.77;;;12.30;99.90;;;12.55;79.84;100529.34;4963306;28;20456;-83
2022/11/09 07:03:50;;;;;;;4.53;3.50;;;12.30;99.90;;;12.36;80.53;100520.34;4964466;28;20920;-83
2022/11/09 07:06:43;;;;;;;7.60;3.40;;;12.20;99.90;;;12.44;81.40;100539.03;4966107;28;20428;-83
2022/11/09 07:09:25;;;;;;;3.43;3.13;;;12.20;99.90;;;12.46;81.30;100528.81;4980296;28;21145;-84
2022/11/09 07:15:16;;;;;;;7.30;3.40;;;12.30;99.90;;;12.24;82.89;100524.00;4965047;28;20554;-81
2022/11/09 07:18:12;;;;;;;4.37;2.97;;;12.20;99.90;;;12.19;84.06;100519.25;4963548;28;20543;-84
2022/11/09 07:20:53;;;;;;;5.03;4.03;;;12.10;99.90;;;12.17;84.44;100507.78;4965617;28;20528;-83
2022/11/09 07:26:37;;;;;;;6.03;3.83;;;12.00;99.90;;;12.25;85.04;100499.34;4968827;29;20437;-83
2022/11/09 07:29:19;;;;;;;6.50;2.60;;;12.10;99.90;;;12.26;86.07;100497.47;4965141;28;20535;-83
2022/11/09 07:32:41;;;;;;;8.50;3.60;;;12.10;99.90;;;12.15;87.55;100490.91;4984720;28;20452;-82
2022/11/09 07:35:39;;;;;;;4.00;2.93;;;12.00;99.90;;;12.04;88.85;100467.22;4987248;28;20473;-81
2022/11/09 07:38:26;;;;;;;5.30;2.97;;;11.90;99.90;;;12.03;89.96;100462.84;4987824;28;20426;-84
2022/11/09 07:41:10;;;;;;;6.00;3.43;;;11.90;99.90;;;11.98;90.08;100459.97;4970644;29;20488;-83
2022/11/09 07:43:40;;;;;;;7.40;4.30;;;11.90;99.90;;;12.23;89.53;100476.22;4987067;28;20474;-82
2022/11/09 07:46:12;;;;;;;10.40;3.50;;;12.00;99.90;;;12.42;89.19;100514.03;4974713;28;20426;-82
2022/11/09 07:48:47;;;;;;;3.47;2.80;;;12.10;99.90;;;12.35;90.65;100532.25;4975818;28;20426;-79
2022/11/09 07:51:21;;;;;;;5.93;3.77;;;12.20;99.90;;;12.26;91.16;100535.44;4971781;29;20409;-81
2022/11/09 07:53:53;;;;;;;3.87;3.40;;;12.10;99.90;;;12.08;91.88;100522.66;4988350;28;20958;-80
2022/11/09 07:56:26;;;;;;;4.60;4.10;;;12.00;99.90;;;12.06;91.74;100513.91;5004794;28;20493;-81
2022/11/09 07:58:58;;;;;;;4.57;3.47;;;11.90;99.90;;;12.02;92.32;100512.69;5003393;28;20470;-80
2022/11/09 08:01:30;;;;;;;4.00;3.40;;;11.90;99.90;;;12.11;91.52;100516.78;4973185;28;20432;-83
2022/11/09 08:04:05;;;;;;;6.80;4.20;;;11.90;99.90;;;12.16;92.12;100519.69;4967914;28;20422;-81
2022/11/09 08:06:34;;;;;;;5.43;3.70;;;12.00;99.90;;;12.19;91.91;100532.81;4968569;29;20431;-80
2022/11/09 08:09:03;;;;;;;4.40;3.20;;;12.00;99.90;;;12.29;90.73;100525.00;4969522;28;20477;-79
2022/11/09 08:11:34;;;;;;;3.20;2.40;;;12.00;99.90;;;12.42;90.16;100529.47;4989163;28;20497;-84
2022/11/09 08:15:00;;;;;;;7.47;3.90;;;12.10;99.90;;;12.31;90.23;100517.47;4989871;28;20440;-82
2022/11/09 08:17:38;;;;;;;6.63;3.70;;;12.10;99.90;;;12.35;90.66;100518.66;4990044;28;20425;-79
2022/11/09 08:20:10;;;;;;;4.20;3.80;;;;;;;12.62;89.49;100520.09;4975605;28;20426;-79
2022/11/09 08:22:48;;;;;;;8.23;4.60;;;;;;;12.46;87.99;100527.97;4971544;29;20496;-80
2022/11/09 08:25:22;;;;;;;5.87;3.60;;;12.10;99.90;;;12.31;89.49;100517.47;4984749;28;20478;-79
2022/11/09 08:27:56;;;;;;;3.87;3.27;;;12.10;99.90;;;12.32;89.82;100521.84;4980752;28;20410;-83
2022/11/09 08:30:26;;;;;;;10.67;3.40;;;12.10;99.90;;;12.35;90.06;100523.25;4992755;28;20551;-79
2022/11/09 08:32:59;;;;;;;4.67;3.50;;;12.10;99.90;;;12.45;89.07;100513.56;4991375;28;20455;-84
2022/11/09 08:39:58;;;;;;;4.97;3.57;;;12.20;99.90;;;12.41;88.60;100506.09;4968750;28;20479;-81
2022/11/09 08:57:56;;;;;;;4.87;3.17;;;12.30;99.90;;;12.61;87.87;100552.88;4814478;29;20499;-82
2022/11/09 09:00:44;;;;;;;4.80;3.27;;;;;;;12.56;87.69;100547.28;4908143;29;20453;-82
2022/11/09 09:03:38;;;;;;;5.40;4.00;;;;;;;12.51;88.73;100547.13;4955935;28;20447;-82
2022/11/09 09:06:20;;;;;;;6.40;3.77;;;;;;;12.76;87.80;100547.09;4954216;29;20439;-82
2022/11/09 09:09:09;;;;;;;7.27;4.30;;;;;;;12.66;87.83;100553.03;4962787;28;20435;-83
2022/11/09 09:11:59;;;;;;;15.83;4.47;;;;;;;12.67;87.75;100553.88;4981163;28;20450;-81
2022/11/09 09:14:36;;;;;;;5.27;4.00;;;;;;;12.78;87.73;100555.84;4976038;29;20429;-81
2022/11/09 09:17:56;;;;;;;7.10;4.17;;;;;;;12.80;87.15;100556.44;4971282;29;20411;-80
2022/11/09 09:20:51;;;;;;;6.80;3.70;;;;;;;12.73;87.54;100548.34;4944244;29;20475;-81
2022/11/09 09:24:29;;;;;;;5.27;4.13;;;;;;;12.95;87.21;100548.75;4956457;29;21137;-81
2022/11/09 09:27:22;;;;;;;6.27;4.00;;;;;;;12.97;86.64;100552.09;4955500;29;20438;-81
2022/11/09 09:30:06;;;;;;;7.17;4.53;;;;;;;12.99;86.00;100558.13;4979297;28;20452;-80
2022/11/09 09:32:53;;;;;;;7.17;5.17;;;;;;;13.01;85.91;100566.88;4970893;29;20438;-82
2022/11/09 09:39:06;;;;;;;9.00;4.30;;;;;;;13.43;84.77;100576.84;4964937;28;20478;-80
2022/11/09 09:41:40;;;;;;;6.57;3.40;;;;;;;13.68;82.74;100573.19;4969812;28;20491;-80
2022/11/09 09:44:23;;;;;;;5.30;3.80;;;;;;;13.48;82.80;100574.28;4984810;28;20426;-79
2022/11/09 09:47:04;;;;;;;6.10;4.00;;;;;;;13.45;83.34;100588.34;4969873;28;20422;-83
2022/11/09 09:49:40;;;;;;;5.60;4.67;;;;;;;13.67;83.15;100593.28;4970184;28;20422;-81
2022/11/09 09:52:18;;;;;;;12.30;5.20;;;;;;;13.49;83.13;100589.53;4969972;29;20495;-82
2022/11/09 09:54:54;;;;;;;5.10;4.57;;;;;;;13.39;83.73;100588.41;4971459;29;20394;-80
2022/11/09 09:57:25;;;;;;;8.43;4.57;;;;;;;13.19;84.84;100577.78;4952531;29;20442;-80
2022/11/09 10:00:01;;;;;;;5.70;4.63;;;;;;;13.29;84.56;100578.06;4951501;29;20452;-83
2022/11/09 10:02:46;;;;;;;7.63;5.50;;;;;;;13.25;84.56;100585.03;4975505;28;20473;-84
2022/11/09 10:05:17;;;;;;;6.00;4.03;;;;;;;13.21;84.48;100589.25;5002818;28;20417;-82
2022/11/09 10:07:55;;;;;;;8.47;4.77;;;;;;;13.22;84.66;100595.50;4984025;28;20730;-80
2022/11/09 10:10:43;;;;;;;4.77;3.90;;;;;;;13.24;85.05;100607.81;4967946;28;20805;-81
2022/11/09 10:14:00;;;;;;;7.17;4.17;;;;;;;13.24;84.96;100604.25;4974300;28;20394;-82
2022/11/09 10:16:38;;;;;;;5.07;3.83;;;;;;;13.47;84.25;100596.25;4976154;28;20446;-80
2022/11/09 10:19:35;;;;;;;5.90;4.10;;;;;;;13.48;83.86;100606.91;4973987;28;20446;-81
2022/11/09 10:22:12;;;;;;;4.40;3.83;;;;;;;13.42;83.57;100602.38;4975919;29;20416;-81
2022/11/09 10:24:52;;;;;;;4.53;4.10;;;;;;;13.46;83.43;100613.59;4973890;28;20414;-82
2022/11/09 10:27:57;;;;;;;8.23;4.53;;;;;;;13.36;83.20;100591.59;4988068;28;20452;-80
2022/11/09 10:30:29;;;;;;;6.40;4.70;;;;;;;13.41;83.39;100583.56;4969680;29;20498;-79
2022/11/09 10:33:14;;;;;;;6.70;4.10;;;;;;;13.37;83.62;100575.03;4979059;28;20410;-82
2022/11/09 10:36:16;;;;;;;4.13;3.83;;;;;;;13.50;83.53;100574.06;4989679;28;20467;-82
2022/11/09 10:38:49;;;;;;;4.30;3.57;;;;;;;13.47;83.39;100572.63;4974160;28;20431;-80
2022/11/09 10:41:46;;;;;;;8.53;4.50;;;;;;;13.74;82.82;100569.56;4973577;29;20978;-79
2022/11/09 10:44:33;;;;;;;4.10;3.30;;;;;;;14.15;80.57;100569.53;4973861;29;20454;-80
2022/11/09 10:47:21;;;;;;;4.87;3.53;;;;;;;14.37;79.60;100566.31;4967842;28;20398;-80
2022/11/09 10:50:23;;;;;;;6.03;4.57;;;;;;;14.52;78.83;100553.91;4970754;28;20486;-80
2022/11/09 10:53:16;;;;;;;4.20;3.80;;;;;;;14.27;79.37;100556.81;4972550;29;20382;-80
2022/11/09 10:56:13;;;;;;;6.30;4.00;;;;;;;14.40;79.09;100549.50;4974534;29;20465;-82
2022/11/09 10:59:44;;;;;;;6.83;4.40;;;;;;;14.52;79.08;100551.19;4973187;28;20474;-80
2022/11/09 11:02:46;;;;;;;6.70;4.20;;;;;;;14.46;79.16;100549.41;4973823;29;20472;-82
2022/11/09 11:05:35;;;;;;;9.87;3.80;;;;;;;14.62;77.97;100553.31;4974052;29;20464;-83
2022/11/09 11:08:30;;;;;;;5.97;4.10;;;;;;;14.64;78.36;100545.72;4990602;28;20401;-81
2022/11/09 11:11:28;;;;;;;7.60;3.83;;;;;;;14.82;77.91;100542.84;4975007;29;20450;-80
2022/11/09 11:14:29;;;;;;;5.23;3.17;;;;;;;15.14;76.23;100548.75;4977399;29;20443;-78
2022/11/09 11:17:42;;;;;;;3.50;2.87;;;;;;;15.15;76.03;100540.31;4975197;29;20441;-80
2022/11/09 11:36:43;;;;;;;4.60;3.10;;;;;;;15.14;75.29;100527.78;4902004;29;20470;-80
2022/11/09 11:39:43;;;;;;;7.40;3.40;;;;;;;15.77;73.33;100543.22;4901171;29;20456;-81
2022/11/09 11:43:03;;;;;;;3.83;2.33;;;;;;;16.15;71.47;100537.06;4979295;28;20445;-79
2022/11/09 11:46:19;;;;;;;5.03;2.37;;;;;;;16.06;71.46;100530.38;5006746;28;20372;-82
2022/11/09 11:49:37;;;;;;;4.77;2.57;;;;;;;16.23;70.54;100528.47;5004130;28;20452;-81
2022/11/09 11:52:39;;;;;;;4.20;3.37;;;;;;;16.34;70.27;100513.91;4993956;28;20421;-80
2022/11/09 11:55:47;;;;;;;3.70;2.50;;;;;;;16.66;68.59;100518.78;5013986;28;20406;-79
2022/11/09 11:58:53;;;;;;;2.70;2.10;;;;;;;16.69;68.74;100515.56;5010551;28;20498;-80
2022/11/09 12:01:58;;;;;;;4.53;2.27;;;;;;;16.95;67.16;100504.72;5007197;28;20461;-79
2022/11/09 12:05:20;;;;;;;3.53;2.30;;;;;;;16.47;68.60;100501.81;5009171;28;20380;-80
2022/11/09 12:08:17;;;;;;;2.73;1.87;;;;;;;16.27;69.26;100509.69;5001763;28;20465;-78